sensor_id;sensor_type;location;lat;lon;timestamp;P1;durP1;ratioP1;P2;durP2;ratioP2
9809;SDS011;4944;52.514;13.192;2023-05-06T00:01:18;6.13;;;3.90;;
9809;SDS011;4944;52.514;13.192;2023-05-06T00:03:45;6.20;;;4.53;;
9809;SDS011;4944;52.514;13.192;2023-05-06T00:06:12;6.33;;;4.57;;
9809;SDS011;4944;52.514;13.192;2023-05-06T00:08:39;6.20;;;4.03;;
9809;SDS011;4944;52.514;13.192;2023-05-06T00:11:06;5.53;;;3.73;;
9809;SDS011;4944;52.514;13.192;2023-05-06T00:13:34;6.50;;;3.87;;
9809;SDS011;4944;52.514;13.192;2023-05-06T00:16:02;6.03;;;4.20;;
9809;SDS011;4944;52.514;13.192;2023-05-06T00:18:29;5.97;;;4.30;;
9809;SDS011;4944;52.514;13.192;2023-05-06T00:20:56;6.10;;;4.17;;
9809;SDS011;4944;52.514;13.192;2023-05-06T00:23:23;4.63;;;4.03;;
9809;SDS011;4944;52.514;13.192;2023-05-06T00:25:52;4.13;;;3.73;;
9809;SDS011;4944;52.514;13.192;2023-05-06T00:28:19;5.07;;;3.97;;
9809;SDS011;4944;52.514;13.192;2023-05-06T00:30:47;6.07;;;4.10;;
9809;SDS011;4944;52.514;13.192;2023-05-06T00:33:14;6.00;;;4.00;;
9809;SDS011;4944;52.514;13.192;2023-05-06T00:35:41;4.80;;;3.93;;
9809;SDS011;4944;52.514;13.192;2023-05-06T00:38:08;5.57;;;4.17;;
9809;SDS011;4944;52.514;13.192;2023-05-06T00:40:37;4.20;;;3.80;;
9809;SDS011;4944;52.514;13.192;2023-05-06T00:43:04;4.60;;;4.17;;
9809;SDS011;4944;52.514;13.192;2023-05-06T00:45:31;5.77;;;4.23;;
9809;SDS011;4944;52.514;13.192;2023-05-06T00:47:59;6.93;;;4.07;;
9809;SDS011;4944;52.514;13.192;2023-05-06T00:50:27;6.07;;;3.80;;
9809;SDS011;4944;52.514;13.192;2023-05-06T00:52:56;4.40;;;4.00;;
9809;SDS011;4944;52.514;13.192;2023-05-06T00:55:24;5.30;;;4.27;;
9809;SDS011;4944;52.514;13.192;2023-05-06T00:57:51;6.13;;;4.40;;
9809;SDS011;4944;52.514;13.192;2023-05-06T01:00:18;3.80;;;3.57;;
9809;SDS011;4944;52.514;13.192;2023-05-06T01:02:45;4.27;;;3.97;;
9809;SDS011;4944;52.514;13.192;2023-05-06T01:05:14;4.70;;;4.13;;
9809;SDS011;4944;52.514;13.192;2023-05-06T01:07:43;4.70;;;4.30;;
9809;SDS011;4944;52.514;13.192;2023-05-06T01:10:19;5.30;;;3.97;;
9809;SDS011;4944;52.514;13.192;2023-05-06T01:12:52;4.73;;;4.10;;
9809;SDS011;4944;52.514;13.192;2023-05-06T01:15:27;5.77;;;4.00;;
9809;SDS011;4944;52.514;13.192;2023-05-06T01:17:58;4.90;;;4.37;;
9809;SDS011;4944;52.514;13.192;2023-05-06T01:20:31;4.90;;;4.50;;
9809;SDS011;4944;52.514;13.192;2023-05-06T01:22:59;5.77;;;3.97;;
9809;SDS011;4944;52.514;13.192;2023-05-06T01:25:28;5.10;;;4.60;;
9809;SDS011;4944;52.514;13.192;2023-05-06T01:27:56;5.63;;;4.27;;
9809;SDS011;4944;52.514;13.192;2023-05-06T01:30:23;5.13;;;4.07;;
9809;SDS011;4944;52.514;13.192;2023-05-06T01:32:58;4.17;;;3.77;;
9809;SDS011;4944;52.514;13.192;2023-05-06T01:35:34;5.20;;;4.03;;
9809;SDS011;4944;52.514;13.192;2023-05-06T01:38:16;4.40;;;4.00;;
9809;SDS011;4944;52.514;13.192;2023-05-06T01:40:50;5.33;;;4.00;;
9809;SDS011;4944;52.514;13.192;2023-05-06T01:43:21;4.47;;;4.07;;
9809;SDS011;4944;52.514;13.192;2023-05-06T01:45:51;10.27;;;4.60;;
9809;SDS011;4944;52.514;13.192;2023-05-06T01:48:20;4.63;;;4.10;;
9809;SDS011;4944;52.514;13.192;2023-05-06T01:50:49;7.73;;;4.50;;
9809;SDS011;4944;52.514;13.192;2023-05-06T01:53:16;4.50;;;4.17;;
9809;SDS011;4944;52.514;13.192;2023-05-06T01:55:43;4.53;;;4.13;;
9809;SDS011;4944;52.514;13.192;2023-05-06T01:58:12;6.40;;;4.70;;
9809;SDS011;4944;52.514;13.192;2023-05-06T02:00:39;6.00;;;4.60;;
9809;SDS011;4944;52.514;13.192;2023-05-06T02:03:05;5.83;;;4.10;;
9809;SDS011;4944;52.514;13.192;2023-05-06T02:05:32;5.50;;;4.60;;
9809;SDS011;4944;52.514;13.192;2023-05-06T02:07:59;5.23;;;4.70;;
9809;SDS011;4944;52.514;13.192;2023-05-06T02:10:26;10.30;;;4.90;;
9809;SDS011;4944;52.514;13.192;2023-05-06T02:12:53;5.30;;;4.57;;
9809;SDS011;4944;52.514;13.192;2023-05-06T02:15:21;6.80;;;4.90;;
9809;SDS011;4944;52.514;13.192;2023-05-06T02:17:48;5.83;;;4.43;;
9809;SDS011;4944;52.514;13.192;2023-05-06T02:20:15;4.90;;;4.50;;
9809;SDS011;4944;52.514;13.192;2023-05-06T02:22:42;5.23;;;4.77;;
9809;SDS011;4944;52.514;13.192;2023-05-06T02:25:09;6.57;;;5.10;;
9809;SDS011;4944;52.514;13.192;2023-05-06T02:27:36;6.43;;;4.50;;
9809;SDS011;4944;52.514;13.192;2023-05-06T02:30:04;5.83;;;4.57;;
9809;SDS011;4944;52.514;13.192;2023-05-06T02:32:33;6.40;;;4.90;;
9809;SDS011;4944;52.514;13.192;2023-05-06T02:35:00;6.50;;;5.00;;
9809;SDS011;4944;52.514;13.192;2023-05-06T02:37:27;5.13;;;4.60;;
9809;SDS011;4944;52.514;13.192;2023-05-06T02:39:54;7.73;;;5.17;;
9809;SDS011;4944;52.514;13.192;2023-05-06T02:42:20;5.97;;;4.83;;
9809;SDS011;4944;52.514;13.192;2023-05-06T02:44:47;6.97;;;4.60;;
9809;SDS011;4944;52.514;13.192;2023-05-06T02:47:14;6.20;;;4.63;;
9809;SDS011;4944;52.514;13.192;2023-05-06T02:49:43;6.40;;;4.80;;
9809;SDS011;4944;52.514;13.192;2023-05-06T02:52:09;6.33;;;4.57;;
9809;SDS011;4944;52.514;13.192;2023-05-06T02:54:36;5.20;;;4.67;;
9809;SDS011;4944;52.514;13.192;2023-05-06T02:57:03;5.30;;;4.80;;
9809;SDS011;4944;52.514;13.192;2023-05-06T02:59:30;6.17;;;4.50;;
9809;SDS011;4944;52.514;13.192;2023-05-06T03:01:57;6.30;;;5.00;;
9809;SDS011;4944;52.514;13.192;2023-05-06T03:04:24;5.77;;;5.13;;
9809;SDS011;4944;52.514;13.192;2023-05-06T03:06:52;5.10;;;4.60;;
9809;SDS011;4944;52.514;13.192;2023-05-06T03:09:19;5.57;;;4.90;;
9809;SDS011;4944;52.514;13.192;2023-05-06T03:11:46;5.40;;;4.43;;
9809;SDS011;4944;52.514;13.192;2023-05-06T03:14:14;6.83;;;4.63;;
9809;SDS011;4944;52.514;13.192;2023-05-06T03:16:41;7.87;;;5.10;;
9809;SDS011;4944;52.514;13.192;2023-05-06T03:19:08;9.70;;;4.53;;
9809;SDS011;4944;52.514;13.192;2023-05-06T03:21:35;6.33;;;5.00;;
9809;SDS011;4944;52.514;13.192;2023-05-06T03:24:04;7.03;;;4.73;;
9809;SDS011;4944;52.514;13.192;2023-05-06T03:26:31;5.20;;;4.50;;
9809;SDS011;4944;52.514;13.192;2023-05-06T03:28:58;5.57;;;5.07;;
9809;SDS011;4944;52.514;13.192;2023-05-06T03:31:25;5.10;;;4.60;;
9809;SDS011;4944;52.514;13.192;2023-05-06T03:33:51;5.10;;;4.70;;
9809;SDS011;4944;52.514;13.192;2023-05-06T03:36:18;8.97;;;5.03;;
9809;SDS011;4944;52.514;13.192;2023-05-06T03:38:50;5.30;;;4.80;;
9809;SDS011;4944;52.514;13.192;2023-05-06T03:41:18;5.90;;;4.60;;
9809;SDS011;4944;52.514;13.192;2023-05-06T03:43:45;7.17;;;5.10;;
9809;SDS011;4944;52.514;13.192;2023-05-06T03:46:12;6.17;;;5.20;;
9809;SDS011;4944;52.514;13.192;2023-05-06T03:48:39;5.17;;;4.20;;
9809;SDS011;4944;52.514;13.192;2023-05-06T03:51:06;5.00;;;4.60;;
9809;SDS011;4944;52.514;13.192;2023-05-06T03:53:33;5.70;;;4.40;;
9809;SDS011;4944;52.514;13.192;2023-05-06T03:56:00;6.10;;;4.40;;
9809;SDS011;4944;52.514;13.192;2023-05-06T03:58:28;5.43;;;4.93;;
9809;SDS011;4944;52.514;13.192;2023-05-06T04:00:55;7.77;;;4.40;;
9809;SDS011;4944;52.514;13.192;2023-05-06T04:03:24;5.00;;;4.60;;
9809;SDS011;4944;52.514;13.192;2023-05-06T04:05:51;5.40;;;4.60;;
9809;SDS011;4944;52.514;13.192;2023-05-06T04:08:18;4.83;;;4.20;;
9809;SDS011;4944;52.514;13.192;2023-05-06T04:10:45;5.60;;;5.10;;
9809;SDS011;4944;52.514;13.192;2023-05-06T04:13:12;5.77;;;4.43;;
9809;SDS011;4944;52.514;13.192;2023-05-06T04:15:40;7.00;;;4.47;;
9809;SDS011;4944;52.514;13.192;2023-05-06T04:18:07;4.87;;;4.47;;
9809;SDS011;4944;52.514;13.192;2023-05-06T04:20:34;6.27;;;4.90;;
9809;SDS011;4944;52.514;13.192;2023-05-06T04:23:01;5.60;;;4.97;;
9809;SDS011;4944;52.514;13.192;2023-05-06T04:25:28;7.60;;;4.77;;
9809;SDS011;4944;52.514;13.192;2023-05-06T04:27:55;5.40;;;4.90;;
9809;SDS011;4944;52.514;13.192;2023-05-06T04:30:22;6.77;;;5.07;;
9809;SDS011;4944;52.514;13.192;2023-05-06T04:32:50;7.13;;;5.30;;
9809;SDS011;4944;52.514;13.192;2023-05-06T04:35:18;5.97;;;4.87;;
9809;SDS011;4944;52.514;13.192;2023-05-06T04:37:45;4.93;;;4.53;;
9809;SDS011;4944;52.514;13.192;2023-05-06T04:40:13;5.80;;;4.90;;
9809;SDS011;4944;52.514;13.192;2023-05-06T04:42:39;5.90;;;5.10;;
9809;SDS011;4944;52.514;13.192;2023-05-06T04:45:07;7.10;;;5.00;;
9809;SDS011;4944;52.514;13.192;2023-05-06T04:47:35;5.70;;;4.70;;
9809;SDS011;4944;52.514;13.192;2023-05-06T04:50:04;5.10;;;4.70;;
9809;SDS011;4944;52.514;13.192;2023-05-06T04:52:31;7.60;;;4.93;;
9809;SDS011;4944;52.514;13.192;2023-05-06T04:54:58;5.10;;;4.70;;
9809;SDS011;4944;52.514;13.192;2023-05-06T04:57:25;6.80;;;4.77;;
9809;SDS011;4944;52.514;13.192;2023-05-06T04:59:52;5.67;;;5.00;;
9809;SDS011;4944;52.514;13.192;2023-05-06T05:02:18;5.47;;;4.67;;
9809;SDS011;4944;52.514;13.192;2023-05-06T05:04:45;5.80;;;5.23;;
9809;SDS011;4944;52.514;13.192;2023-05-06T05:07:14;7.63;;;5.57;;
9809;SDS011;4944;52.514;13.192;2023-05-06T05:09:41;5.57;;;4.57;;
9809;SDS011;4944;52.514;13.192;2023-05-06T05:12:07;5.70;;;4.93;;
9809;SDS011;4944;52.514;13.192;2023-05-06T05:14:34;6.40;;;4.83;;
9809;SDS011;4944;52.514;13.192;2023-05-06T05:17:01;7.07;;;5.07;;
9809;SDS011;4944;52.514;13.192;2023-05-06T05:19:28;6.17;;;5.00;;
9809;SDS011;4944;52.514;13.192;2023-05-06T05:21:55;5.50;;;5.00;;
9809;SDS011;4944;52.514;13.192;2023-05-06T05:24:23;5.70;;;5.00;;
9809;SDS011;4944;52.514;13.192;2023-05-06T05:26:50;9.47;;;4.90;;
9809;SDS011;4944;52.514;13.192;2023-05-06T05:29:17;5.97;;;5.37;;
9809;SDS011;4944;52.514;13.192;2023-05-06T05:31:44;6.83;;;5.50;;
9809;SDS011;4944;52.514;13.192;2023-05-06T05:34:11;9.23;;;5.43;;
9809;SDS011;4944;52.514;13.192;2023-05-06T05:36:37;5.30;;;4.80;;
9809;SDS011;4944;52.514;13.192;2023-05-06T05:39:04;4.90;;;4.50;;
9809;SDS011;4944;52.514;13.192;2023-05-06T05:41:33;5.80;;;5.30;;
9809;SDS011;4944;52.514;13.192;2023-05-06T05:44:00;7.67;;;5.30;;
9809;SDS011;4944;52.514;13.192;2023-05-06T05:46:26;7.60;;;5.10;;
9809;SDS011;4944;52.514;13.192;2023-05-06T05:48:53;5.63;;;5.10;;
9809;SDS011;4944;52.514;13.192;2023-05-06T05:51:20;5.50;;;5.00;;
9809;SDS011;4944;52.514;13.192;2023-05-06T05:53:47;5.33;;;4.83;;
9809;SDS011;4944;52.514;13.192;2023-05-06T05:56:16;6.23;;;5.07;;
9809;SDS011;4944;52.514;13.192;2023-05-06T05:58:44;5.67;;;5.17;;
9809;SDS011;4944;52.514;13.192;2023-05-06T06:01:11;6.80;;;5.13;;
9809;SDS011;4944;52.514;13.192;2023-05-06T06:03:38;6.23;;;5.10;;
9809;SDS011;4944;52.514;13.192;2023-05-06T06:06:06;5.60;;;5.13;;
9809;SDS011;4944;52.514;13.192;2023-05-06T06:08:33;6.83;;;4.97;;
9809;SDS011;4944;52.514;13.192;2023-05-06T06:11:00;5.80;;;5.30;;
9809;SDS011;4944;52.514;13.192;2023-05-06T06:13:28;5.67;;;5.17;;
9809;SDS011;4944;52.514;13.192;2023-05-06T06:15:56;6.80;;;5.10;;
9809;SDS011;4944;52.514;13.192;2023-05-06T06:18:24;5.40;;;5.00;;
9809;SDS011;4944;52.514;13.192;2023-05-06T06:20:51;6.67;;;5.27;;
9809;SDS011;4944;52.514;13.192;2023-05-06T06:23:18;7.90;;;5.00;;
9809;SDS011;4944;52.514;13.192;2023-05-06T06:25:45;6.17;;;5.57;;
9809;SDS011;4944;52.514;13.192;2023-05-06T06:28:12;6.90;;;5.70;;
9809;SDS011;4944;52.514;13.192;2023-05-06T06:30:39;6.30;;;5.70;;
9809;SDS011;4944;52.514;13.192;2023-05-06T06:33:08;5.87;;;5.17;;
9809;SDS011;4944;52.514;13.192;2023-05-06T06:35:35;5.37;;;4.87;;
9809;SDS011;4944;52.514;13.192;2023-05-06T06:38:02;6.17;;;5.20;;
9809;SDS011;4944;52.514;13.192;2023-05-06T06:40:28;8.40;;;6.10;;
9809;SDS011;4944;52.514;13.192;2023-05-06T06:42:55;6.00;;;5.40;;
9809;SDS011;4944;52.514;13.192;2023-05-06T06:45:22;5.93;;;5.33;;
9809;SDS011;4944;52.514;13.192;2023-05-06T06:47:49;5.50;;;5.00;;
9809;SDS011;4944;52.514;13.192;2023-05-06T06:50:18;6.10;;;5.27;;
9809;SDS011;4944;52.514;13.192;2023-05-06T06:52:44;5.40;;;4.90;;
9809;SDS011;4944;52.514;13.192;2023-05-06T06:55:11;5.70;;;5.10;;
9809;SDS011;4944;52.514;13.192;2023-05-06T06:57:38;6.23;;;4.73;;
9809;SDS011;4944;52.514;13.192;2023-05-06T07:00:06;5.17;;;4.77;;
9809;SDS011;4944;52.514;13.192;2023-05-06T07:02:33;7.13;;;5.10;;
9809;SDS011;4944;52.514;13.192;2023-05-06T07:05:00;5.77;;;5.13;;
9809;SDS011;4944;52.514;13.192;2023-05-06T07:07:29;5.57;;;5.03;;
9809;SDS011;4944;52.514;13.192;2023-05-06T07:09:56;6.03;;;4.90;;
9809;SDS011;4944;52.514;13.192;2023-05-06T07:12:23;6.13;;;5.17;;
9809;SDS011;4944;52.514;13.192;2023-05-06T07:14:50;5.03;;;4.63;;
9809;SDS011;4944;52.514;13.192;2023-05-06T07:17:17;7.50;;;5.60;;
9809;SDS011;4944;52.514;13.192;2023-05-06T07:19:44;6.40;;;5.17;;
9809;SDS011;4944;52.514;13.192;2023-05-06T07:22:11;5.73;;;4.90;;
9809;SDS011;4944;52.514;13.192;2023-05-06T07:24:39;6.67;;;5.03;;
9809;SDS011;4944;52.514;13.192;2023-05-06T07:27:06;6.57;;;5.90;;
9809;SDS011;4944;52.514;13.192;2023-05-06T07:29:33;6.00;;;5.50;;
9809;SDS011;4944;52.514;13.192;2023-05-06T07:32:01;7.17;;;5.40;;
9809;SDS011;4944;52.514;13.192;2023-05-06T07:34:28;7.57;;;5.67;;
9809;SDS011;4944;52.514;13.192;2023-05-06T07:36:55;7.20;;;5.57;;
9809;SDS011;4944;52.514;13.192;2023-05-06T07:39:22;5.73;;;5.23;;
9809;SDS011;4944;52.514;13.192;2023-05-06T07:41:50;5.87;;;4.90;;
9809;SDS011;4944;52.514;13.192;2023-05-06T07:44:18;6.00;;;5.50;;
9809;SDS011;4944;52.514;13.192;2023-05-06T07:46:45;6.20;;;5.63;;
9809;SDS011;4944;52.514;13.192;2023-05-06T07:49:12;6.83;;;5.50;;
9809;SDS011;4944;52.514;13.192;2023-05-06T07:51:40;6.37;;;5.77;;
9809;SDS011;4944;52.514;13.192;2023-05-06T07:54:07;6.77;;;6.17;;
9809;SDS011;4944;52.514;13.192;2023-05-06T07:56:35;6.30;;;5.70;;
9809;SDS011;4944;52.514;13.192;2023-05-06T07:59:03;6.23;;;5.60;;
9809;SDS011;4944;52.514;13.192;2023-05-06T08:01:30;5.63;;;5.23;;
9809;SDS011;4944;52.514;13.192;2023-05-06T08:03:57;5.83;;;5.30;;
9809;SDS011;4944;52.514;13.192;2023-05-06T08:06:24;6.17;;;5.57;;
9809;SDS011;4944;52.514;13.192;2023-05-06T08:08:51;7.07;;;5.77;;
9809;SDS011;4944;52.514;13.192;2023-05-06T08:11:18;6.40;;;5.90;;
9809;SDS011;4944;52.514;13.192;2023-05-06T08:13:45;6.73;;;6.13;;
9809;SDS011;4944;52.514;13.192;2023-05-06T08:16:13;6.53;;;5.97;;
9809;SDS011;4944;52.514;13.192;2023-05-06T08:18:40;6.60;;;5.57;;
9809;SDS011;4944;52.514;13.192;2023-05-06T08:21:07;6.40;;;5.90;;
9809;SDS011;4944;52.514;13.192;2023-05-06T08:23:35;6.90;;;5.90;;
9809;SDS011;4944;52.514;13.192;2023-05-06T08:26:02;6.53;;;5.93;;
9809;SDS011;4944;52.514;13.192;2023-05-06T08:28:28;5.97;;;5.47;;
9809;SDS011;4944;52.514;13.192;2023-05-06T08:30:55;6.73;;;6.20;;
9809;SDS011;4944;52.514;13.192;2023-05-06T08:33:24;6.30;;;5.80;;
9809;SDS011;4944;52.514;13.192;2023-05-06T08:35:51;8.67;;;6.33;;
9809;SDS011;4944;52.514;13.192;2023-05-06T08:38:18;6.13;;;5.63;;
9809;SDS011;4944;52.514;13.192;2023-05-06T08:40:44;7.37;;;6.30;;
9809;SDS011;4944;52.514;13.192;2023-05-06T08:43:14;7.40;;;6.73;;
9809;SDS011;4944;52.514;13.192;2023-05-06T08:45:46;6.70;;;6.03;;
9809;SDS011;4944;52.514;13.192;2023-05-06T08:48:14;6.73;;;6.13;;
9809;SDS011;4944;52.514;13.192;2023-05-06T08:50:43;6.30;;;5.80;;
9809;SDS011;4944;52.514;13.192;2023-05-06T08:53:10;6.87;;;6.27;;
9809;SDS011;4944;52.514;13.192;2023-05-06T08:55:39;6.83;;;6.23;;
9809;SDS011;4944;52.514;13.192;2023-05-06T08:58:07;8.27;;;6.10;;
9809;SDS011;4944;52.514;13.192;2023-05-06T09:00:35;6.80;;;6.20;;
9809;SDS011;4944;52.514;13.192;2023-05-06T09:03:03;6.37;;;5.93;;
9809;SDS011;4944;52.514;13.192;2023-05-06T09:05:30;6.57;;;6.07;;
9809;SDS011;4944;52.514;13.192;2023-05-06T09:07:58;6.20;;;5.70;;
9809;SDS011;4944;52.514;13.192;2023-05-06T09:10:29;8.77;;;7.10;;
9809;SDS011;4944;52.514;13.192;2023-05-06T09:12:57;6.63;;;6.10;;
9809;SDS011;4944;52.514;13.192;2023-05-06T09:15:24;7.40;;;6.70;;
9809;SDS011;4944;52.514;13.192;2023-05-06T09:17:51;7.03;;;6.43;;
9809;SDS011;4944;52.514;13.192;2023-05-06T09:20:20;6.50;;;5.90;;
9809;SDS011;4944;52.514;13.192;2023-05-06T09:22:47;7.30;;;6.80;;
9809;SDS011;4944;52.514;13.192;2023-05-06T09:25:15;6.83;;;6.33;;
9809;SDS011;4944;52.514;13.192;2023-05-06T09:27:43;7.17;;;6.57;;
9809;SDS011;4944;52.514;13.192;2023-05-06T09:30:10;6.70;;;6.10;;
9809;SDS011;4944;52.514;13.192;2023-05-06T09:32:37;6.83;;;6.33;;
9809;SDS011;4944;52.514;13.192;2023-05-06T09:35:05;7.13;;;6.57;;
9809;SDS011;4944;52.514;13.192;2023-05-06T09:37:33;6.90;;;6.30;;
9809;SDS011;4944;52.514;13.192;2023-05-06T09:40:00;6.70;;;6.20;;
9809;SDS011;4944;52.514;13.192;2023-05-06T09:42:28;7.27;;;6.67;;
9809;SDS011;4944;52.514;13.192;2023-05-06T09:44:56;6.93;;;6.33;;
9809;SDS011;4944;52.514;13.192;2023-05-06T09:47:24;7.10;;;6.47;;
9809;SDS011;4944;52.514;13.192;2023-05-06T09:49:55;6.80;;;6.23;;
9809;SDS011;4944;52.514;13.192;2023-05-06T09:52:23;7.27;;;6.67;;
9809;SDS011;4944;52.514;13.192;2023-05-06T09:54:51;6.63;;;6.13;;
9809;SDS011;4944;52.514;13.192;2023-05-06T09:57:19;6.03;;;5.63;;
9809;SDS011;4944;52.514;13.192;2023-05-06T09:59:48;6.23;;;5.73;;
9809;SDS011;4944;52.514;13.192;2023-05-06T10:02:17;6.40;;;5.80;;
9809;SDS011;4944;52.514;13.192;2023-05-06T10:04:44;6.73;;;6.13;;
9809;SDS011;4944;52.514;13.192;2023-05-06T10:07:15;6.50;;;6.00;;
9809;SDS011;4944;52.514;13.192;2023-05-06T10:09:46;6.90;;;6.40;;
9809;SDS011;4944;52.514;13.192;2023-05-06T10:12:15;6.67;;;6.07;;
9809;SDS011;4944;52.514;13.192;2023-05-06T10:14:42;6.87;;;6.17;;
9809;SDS011;4944;52.514;13.192;2023-05-06T10:17:11;6.90;;;6.30;;
9809;SDS011;4944;52.514;13.192;2023-05-06T10:19:39;6.03;;;5.53;;
9809;SDS011;4944;52.514;13.192;2023-05-06T10:22:10;6.13;;;5.73;;
9809;SDS011;4944;52.514;13.192;2023-05-06T10:24:45;7.53;;;5.50;;
9809;SDS011;4944;52.514;13.192;2023-05-06T10:27:18;6.10;;;5.60;;
9809;SDS011;4944;52.514;13.192;2023-05-06T10:29:48;6.00;;;5.60;;
9809;SDS011;4944;52.514;13.192;2023-05-06T10:32:19;6.20;;;5.63;;
9809;SDS011;4944;52.514;13.192;2023-05-06T10:34:50;6.33;;;5.83;;
9809;SDS011;4944;52.514;13.192;2023-05-06T10:37:19;6.10;;;5.60;;
9809;SDS011;4944;52.514;13.192;2023-05-06T10:39:50;11.07;;;5.87;;
9809;SDS011;4944;52.514;13.192;2023-05-06T10:42:18;6.70;;;6.20;;
9809;SDS011;4944;52.514;13.192;2023-05-06T10:44:55;6.10;;;5.60;;
9809;SDS011;4944;52.514;13.192;2023-05-06T10:47:24;6.10;;;5.70;;
9809;SDS011;4944;52.514;13.192;2023-05-06T10:52:44;6.73;;;6.20;;
9809;SDS011;4944;52.514;13.192;2023-05-06T10:55:23;6.73;;;6.13;;
9809;SDS011;4944;52.514;13.192;2023-05-06T10:57:52;7.10;;;6.43;;
9809;SDS011;4944;52.514;13.192;2023-05-06T11:00:20;6.17;;;5.70;;
9809;SDS011;4944;52.514;13.192;2023-05-06T11:02:50;6.97;;;6.47;;
9809;SDS011;4944;52.514;13.192;2023-05-06T11:05:21;7.17;;;6.67;;
9809;SDS011;4944;52.514;13.192;2023-05-06T11:07:48;7.10;;;6.60;;
9809;SDS011;4944;52.514;13.192;2023-05-06T11:10:16;7.37;;;6.67;;
9809;SDS011;4944;52.514;13.192;2023-05-06T11:12:58;8.43;;;7.00;;
9809;SDS011;4944;52.514;13.192;2023-05-06T11:15:43;7.07;;;6.53;;
9809;SDS011;4944;52.514;13.192;2023-05-06T11:24:05;6.13;;;5.73;;
9809;SDS011;4944;52.514;13.192;2023-05-06T11:26:38;7.13;;;6.53;;
9809;SDS011;4944;52.514;13.192;2023-05-06T11:29:07;6.67;;;6.07;;
9809;SDS011;4944;52.514;13.192;2023-05-06T11:31:36;6.17;;;5.77;;
9809;SDS011;4944;52.514;13.192;2023-05-06T11:34:07;5.90;;;5.47;;
9809;SDS011;4944;52.514;13.192;2023-05-06T11:36:45;7.23;;;5.80;;
9809;SDS011;4944;52.514;13.192;2023-05-06T11:39:22;5.80;;;5.30;;
9809;SDS011;4944;52.514;13.192;2023-05-06T11:41:51;5.10;;;4.70;;
9809;SDS011;4944;52.514;13.192;2023-05-06T11:44:25;5.50;;;5.10;;
9809;SDS011;4944;52.514;13.192;2023-05-06T11:46:56;4.97;;;4.57;;
9809;SDS011;4944;52.514;13.192;2023-05-06T11:49:25;4.77;;;4.47;;
9809;SDS011;4944;52.514;13.192;2023-05-06T11:51:53;4.80;;;4.50;;
9809;SDS011;4944;52.514;13.192;2023-05-06T11:54:21;4.53;;;4.30;;
9809;SDS011;4944;52.514;13.192;2023-05-06T11:56:49;4.30;;;3.90;;
9809;SDS011;4944;52.514;13.192;2023-05-06T11:59:16;4.50;;;4.20;;
9809;SDS011;4944;52.514;13.192;2023-05-06T12:01:50;5.27;;;4.77;;
9809;SDS011;4944;52.514;13.192;2023-05-06T12:04:17;5.67;;;5.10;;
9809;SDS011;4944;52.514;13.192;2023-05-06T12:06:45;5.20;;;4.80;;
9809;SDS011;4944;52.514;13.192;2023-05-06T12:09:12;5.73;;;4.80;;
9809;SDS011;4944;52.514;13.192;2023-05-06T12:11:40;3.90;;;3.63;;
9809;SDS011;4944;52.514;13.192;2023-05-06T12:14:08;4.97;;;4.47;;
9809;SDS011;4944;52.514;13.192;2023-05-06T12:16:36;4.73;;;4.27;;
9809;SDS011;4944;52.514;13.192;2023-05-06T12:19:03;5.57;;;3.93;;
9809;SDS011;4944;52.514;13.192;2023-05-06T12:21:31;4.93;;;4.53;;
9809;SDS011;4944;52.514;13.192;2023-05-06T12:24:04;4.83;;;4.47;;
9809;SDS011;4944;52.514;13.192;2023-05-06T12:26:40;4.60;;;4.20;;
9809;SDS011;4944;52.514;13.192;2023-05-06T12:29:09;4.50;;;3.80;;
9809;SDS011;4944;52.514;13.192;2023-05-06T12:31:39;3.70;;;3.50;;
9809;SDS011;4944;52.514;13.192;2023-05-06T12:34:07;5.97;;;3.97;;
9809;SDS011;4944;52.514;13.192;2023-05-06T12:36:38;4.93;;;4.13;;
9809;SDS011;4944;52.514;13.192;2023-05-06T12:39:07;3.77;;;3.47;;
9809;SDS011;4944;52.514;13.192;2023-05-06T12:41:36;5.17;;;4.20;;
9809;SDS011;4944;52.514;13.192;2023-05-06T12:46:56;3.80;;;3.50;;
9809;SDS011;4944;52.514;13.192;2023-05-06T12:49:23;4.23;;;3.67;;
9809;SDS011;4944;52.514;13.192;2023-05-06T12:52:04;3.40;;;3.10;;
9809;SDS011;4944;52.514;13.192;2023-05-06T12:54:33;3.07;;;2.77;;
9809;SDS011;4944;52.514;13.192;2023-05-06T12:57:00;3.70;;;3.40;;
9809;SDS011;4944;52.514;13.192;2023-05-06T12:59:27;3.50;;;3.20;;
9809;SDS011;4944;52.514;13.192;2023-05-06T13:01:54;3.10;;;2.90;;
9809;SDS011;4944;52.514;13.192;2023-05-06T13:04:21;3.40;;;3.10;;
9809;SDS011;4944;52.514;13.192;2023-05-06T13:06:48;3.50;;;3.20;;
9809;SDS011;4944;52.514;13.192;2023-05-06T13:09:15;3.13;;;2.83;;
9809;SDS011;4944;52.514;13.192;2023-05-06T13:11:44;3.70;;;3.37;;
9809;SDS011;4944;52.514;13.192;2023-05-06T13:14:11;3.40;;;3.20;;
9809;SDS011;4944;52.514;13.192;2023-05-06T13:16:38;3.07;;;2.87;;
9809;SDS011;4944;52.514;13.192;2023-05-06T13:19:06;3.03;;;2.83;;
9809;SDS011;4944;52.514;13.192;2023-05-06T13:21:35;3.83;;;2.87;;
9809;SDS011;4944;52.514;13.192;2023-05-06T13:24:02;3.20;;;3.00;;
9809;SDS011;4944;52.514;13.192;2023-05-06T13:26:30;3.00;;;2.80;;
9809;SDS011;4944;52.514;13.192;2023-05-06T13:28:58;3.57;;;3.27;;
9809;SDS011;4944;52.514;13.192;2023-05-06T13:31:25;3.70;;;3.40;;
9809;SDS011;4944;52.514;13.192;2023-05-06T13:33:52;4.53;;;3.53;;
9809;SDS011;4944;52.514;13.192;2023-05-06T13:36:19;3.70;;;3.40;;
9809;SDS011;4944;52.514;13.192;2023-05-06T13:38:46;2.90;;;2.70;;
9809;SDS011;4944;52.514;13.192;2023-05-06T13:41:13;3.10;;;2.83;;
9809;SDS011;4944;52.514;13.192;2023-05-06T13:43:40;4.10;;;3.03;;
9809;SDS011;4944;52.514;13.192;2023-05-06T13:46:08;3.63;;;3.20;;
9809;SDS011;4944;52.514;13.192;2023-05-06T13:48:35;3.83;;;3.47;;
9809;SDS011;4944;52.514;13.192;2023-05-06T13:51:02;3.67;;;3.37;;
9809;SDS011;4944;52.514;13.192;2023-05-06T13:53:30;3.57;;;3.27;;
9809;SDS011;4944;52.514;13.192;2023-05-06T13:55:56;3.50;;;3.20;;
9809;SDS011;4944;52.514;13.192;2023-05-06T13:58:23;4.07;;;3.43;;
9809;SDS011;4944;52.514;13.192;2023-05-06T14:00:50;3.57;;;3.30;;
9809;SDS011;4944;52.514;13.192;2023-05-06T14:03:21;3.83;;;3.50;;
9809;SDS011;4944;52.514;13.192;2023-05-06T14:05:48;3.40;;;3.10;;
9809;SDS011;4944;52.514;13.192;2023-05-06T14:08:15;4.17;;;3.30;;
9809;SDS011;4944;52.514;13.192;2023-05-06T14:10:42;4.03;;;3.73;;
9809;SDS011;4944;52.514;13.192;2023-05-06T14:13:09;5.13;;;3.33;;
9809;SDS011;4944;52.514;13.192;2023-05-06T14:15:36;4.30;;;3.13;;
9809;SDS011;4944;52.514;13.192;2023-05-06T14:18:03;3.53;;;3.33;;
9809;SDS011;4944;52.514;13.192;2023-05-06T14:20:31;3.60;;;3.20;;
9809;SDS011;4944;52.514;13.192;2023-05-06T14:22:58;3.50;;;3.20;;
9809;SDS011;4944;52.514;13.192;2023-05-06T14:25:25;3.37;;;3.17;;
9809;SDS011;4944;52.514;13.192;2023-05-06T14:27:52;3.93;;;3.50;;
9809;SDS011;4944;52.514;13.192;2023-05-06T14:30:20;3.87;;;3.20;;
9809;SDS011;4944;52.514;13.192;2023-05-06T14:32:47;3.03;;;2.73;;
9809;SDS011;4944;52.514;13.192;2023-05-06T14:35:14;3.33;;;3.03;;
9809;SDS011;4944;52.514;13.192;2023-05-06T14:37:42;4.13;;;2.77;;
9809;SDS011;4944;52.514;13.192;2023-05-06T14:40:09;4.07;;;2.43;;
9809;SDS011;4944;52.514;13.192;2023-05-06T14:42:36;2.80;;;2.60;;
9809;SDS011;4944;52.514;13.192;2023-05-06T14:45:04;4.23;;;2.53;;
9809;SDS011;4944;52.514;13.192;2023-05-06T14:47:31;3.43;;;2.57;;
9809;SDS011;4944;52.514;13.192;2023-05-06T14:49:58;2.80;;;2.60;;
9809;SDS011;4944;52.514;13.192;2023-05-06T14:52:25;4.20;;;2.73;;
9809;SDS011;4944;52.514;13.192;2023-05-06T14:54:53;3.33;;;2.87;;
9809;SDS011;4944;52.514;13.192;2023-05-06T14:57:20;2.80;;;2.60;;
9809;SDS011;4944;52.514;13.192;2023-05-06T14:59:48;3.37;;;2.67;;
9809;SDS011;4944;52.514;13.192;2023-05-06T15:02:16;2.73;;;2.60;;
9809;SDS011;4944;52.514;13.192;2023-05-06T15:04:43;2.90;;;2.67;;
9809;SDS011;4944;52.514;13.192;2023-05-06T15:07:10;2.60;;;2.40;;
9809;SDS011;4944;52.514;13.192;2023-05-06T15:09:37;3.00;;;2.70;;
9809;SDS011;4944;52.514;13.192;2023-05-06T15:12:09;3.30;;;3.00;;
9809;SDS011;4944;52.514;13.192;2023-05-06T15:14:36;2.80;;;2.60;;
9809;SDS011;4944;52.514;13.192;2023-05-06T15:17:03;2.80;;;2.60;;